sensor_id;sensor_type;location;lat;lon;timestamp;P1;durP1;ratioP1;P2;durP2;ratioP2
54157;SDS011;40065;49.894;10.358;2023-06-19T00:00:23;7.57;;;5.75;;
54157;SDS011;40065;49.894;10.358;2023-06-19T00:05:26;9.55;;;5.50;;
54157;SDS011;40065;49.894;10.358;2023-06-19T00:10:28;6.97;;;6.20;;
54157;SDS011;40065;49.894;10.358;2023-06-19T00:15:30;8.75;;;6.00;;
54157;SDS011;40065;49.894;10.358;2023-06-19T00:20:32;6.10;;;5.50;;
54157;SDS011;40065;49.894;10.358;2023-06-19T00:30:37;6.78;;;5.35;;
54157;SDS011;40065;49.894;10.358;2023-06-19T00:35:39;6.28;;;5.13;;
54157;SDS011;40065;49.894;10.358;2023-06-19T00:40:42;7.28;;;4.93;;
54157;SDS011;40065;49.894;10.358;2023-06-19T00:45:44;8.20;;;6.03;;
54157;SDS011;40065;49.894;10.358;2023-06-19T00:50:46;9.48;;;5.75;;
54157;SDS011;40065;49.894;10.358;2023-06-19T00:55:48;6.60;;;5.75;;
54157;SDS011;40065;49.894;10.358;2023-06-19T01:00:52;10.52;;;6.07;;
54157;SDS011;40065;49.894;10.358;2023-06-19T01:06:09;8.95;;;5.85;;
54157;SDS011;40065;49.894;10.358;2023-06-19T01:11:17;8.93;;;5.78;;
54157;SDS011;40065;49.894;10.358;2023-06-19T01:16:28;7.40;;;6.22;;
54157;SDS011;40065;49.894;10.358;2023-06-19T01:26:33;6.80;;;5.20;;
54157;SDS011;40065;49.894;10.358;2023-06-19T01:31:37;8.57;;;6.35;;
54157;SDS011;40065;49.894;10.358;2023-06-19T01:36:47;9.65;;;6.80;;
54157;SDS011;40065;49.894;10.358;2023-06-19T01:41:51;8.55;;;6.70;;
54157;SDS011;40065;49.894;10.358;2023-06-19T01:46:53;7.13;;;5.68;;
54157;SDS011;40065;49.894;10.358;2023-06-19T01:51:55;8.52;;;6.50;;
54157;SDS011;40065;49.894;10.358;2023-06-19T01:56:58;8.77;;;6.40;;
54157;SDS011;40065;49.894;10.358;2023-06-19T02:02:00;7.78;;;6.20;;
54157;SDS011;40065;49.894;10.358;2023-06-19T02:07:05;7.65;;;6.30;;
54157;SDS011;40065;49.894;10.358;2023-06-19T02:12:07;9.63;;;6.75;;
54157;SDS011;40065;49.894;10.358;2023-06-19T02:17:09;8.32;;;7.30;;
54157;SDS011;40065;49.894;10.358;2023-06-19T02:22:12;11.85;;;6.60;;
54157;SDS011;40065;49.894;10.358;2023-06-19T02:27:13;9.68;;;6.82;;
54157;SDS011;40065;49.894;10.358;2023-06-19T02:32:17;8.38;;;6.75;;
54157;SDS011;40065;49.894;10.358;2023-06-19T02:37:19;8.32;;;6.80;;
54157;SDS011;40065;49.894;10.358;2023-06-19T02:42:21;10.60;;;7.28;;
54157;SDS011;40065;49.894;10.358;2023-06-19T02:47:22;8.30;;;6.28;;
54157;SDS011;40065;49.894;10.358;2023-06-19T02:52:24;11.00;;;7.57;;
54157;SDS011;40065;49.894;10.358;2023-06-19T02:57:27;7.65;;;6.75;;
54157;SDS011;40065;49.894;10.358;2023-06-19T03:02:28;9.45;;;6.85;;
54157;SDS011;40065;49.894;10.358;2023-06-19T03:07:30;10.63;;;7.10;;
54157;SDS011;40065;49.894;10.358;2023-06-19T03:12:34;9.15;;;7.57;;
54157;SDS011;40065;49.894;10.358;2023-06-19T03:17:35;7.60;;;6.30;;
54157;SDS011;40065;49.894;10.358;2023-06-19T03:22:41;13.68;;;6.85;;
54157;SDS011;40065;49.894;10.358;2023-06-19T03:27:46;9.55;;;7.03;;
54157;SDS011;40065;49.894;10.358;2023-06-19T03:32:48;9.38;;;6.50;;
54157;SDS011;40065;49.894;10.358;2023-06-19T03:38:07;8.57;;;6.97;;
54157;SDS011;40065;49.894;10.358;2023-06-19T03:43:09;9.93;;;6.70;;
54157;SDS011;40065;49.894;10.358;2023-06-19T03:48:15;9.60;;;6.53;;
54157;SDS011;40065;49.894;10.358;2023-06-19T03:53:17;9.38;;;6.45;;
54157;SDS011;40065;49.894;10.358;2023-06-19T03:58:19;8.57;;;6.22;;
54157;SDS011;40065;49.894;10.358;2023-06-19T04:03:21;7.53;;;6.38;;
54157;SDS011;40065;49.894;10.358;2023-06-19T04:08:23;7.75;;;5.95;;
54157;SDS011;40065;49.894;10.358;2023-06-19T04:13:26;9.05;;;6.13;;
54157;SDS011;40065;49.894;10.358;2023-06-19T04:18:28;8.73;;;6.00;;
54157;SDS011;40065;49.894;10.358;2023-06-19T04:23:30;8.50;;;6.50;;
54157;SDS011;40065;49.894;10.358;2023-06-19T04:28:32;8.43;;;5.85;;
54157;SDS011;40065;49.894;10.358;2023-06-19T04:33:34;8.13;;;5.93;;
54157;SDS011;40065;49.894;10.358;2023-06-19T04:38:36;8.70;;;6.35;;
54157;SDS011;40065;49.894;10.358;2023-06-19T04:43:38;8.65;;;6.15;;
54157;SDS011;40065;49.894;10.358;2023-06-19T04:48:42;7.95;;;6.07;;
54157;SDS011;40065;49.894;10.358;2023-06-19T04:53:44;8.13;;;5.82;;
54157;SDS011;40065;49.894;10.358;2023-06-19T04:58:46;8.35;;;5.70;;
54157;SDS011;40065;49.894;10.358;2023-06-19T05:03:48;8.20;;;6.53;;
54157;SDS011;40065;49.894;10.358;2023-06-19T05:08:50;7.50;;;6.00;;
54157;SDS011;40065;49.894;10.358;2023-06-19T05:13:52;9.95;;;6.28;;
54157;SDS011;40065;49.894;10.358;2023-06-19T05:18:54;11.88;;;6.00;;
54157;SDS011;40065;49.894;10.358;2023-06-19T05:23:56;8.20;;;6.10;;
54157;SDS011;40065;49.894;10.358;2023-06-19T05:28:58;8.80;;;6.38;;
54157;SDS011;40065;49.894;10.358;2023-06-19T05:34:00;8.20;;;6.18;;
54157;SDS011;40065;49.894;10.358;2023-06-19T05:39:02;8.88;;;6.30;;
54157;SDS011;40065;49.894;10.358;2023-06-19T05:44:04;12.55;;;6.45;;
54157;SDS011;40065;49.894;10.358;2023-06-19T05:49:06;8.07;;;6.38;;
54157;SDS011;40065;49.894;10.358;2023-06-19T05:54:08;14.43;;;6.72;;
54157;SDS011;40065;49.894;10.358;2023-06-19T05:59:11;10.80;;;6.30;;
54157;SDS011;40065;49.894;10.358;2023-06-19T06:04:16;10.30;;;6.43;;
54157;SDS011;40065;49.894;10.358;2023-06-19T06:09:18;14.33;;;6.83;;
54157;SDS011;40065;49.894;10.358;2023-06-19T06:14:21;11.50;;;6.47;;
54157;SDS011;40065;49.894;10.358;2023-06-19T06:19:22;7.05;;;6.28;;
54157;SDS011;40065;49.894;10.358;2023-06-19T06:24:24;8.85;;;6.32;;
54157;SDS011;40065;49.894;10.358;2023-06-19T06:29:26;8.02;;;6.32;;
54157;SDS011;40065;49.894;10.358;2023-06-19T06:34:29;9.50;;;6.97;;
54157;SDS011;40065;49.894;10.358;2023-06-19T06:39:31;9.02;;;6.18;;
54157;SDS011;40065;49.894;10.358;2023-06-19T06:44:33;9.80;;;6.50;;
54157;SDS011;40065;49.894;10.358;2023-06-19T06:49:34;8.82;;;6.13;;
54157;SDS011;40065;49.894;10.358;2023-06-19T06:54:37;10.40;;;5.87;;
54157;SDS011;40065;49.894;10.358;2023-06-19T06:59:39;9.38;;;6.50;;
54157;SDS011;40065;49.894;10.358;2023-06-19T07:04:41;11.75;;;5.80;;
54157;SDS011;40065;49.894;10.358;2023-06-19T07:09:43;9.70;;;5.63;;
54157;SDS011;40065;49.894;10.358;2023-06-19T07:14:45;9.68;;;5.80;;
54157;SDS011;40065;49.894;10.358;2023-06-19T07:19:46;10.82;;;5.70;;
54157;SDS011;40065;49.894;10.358;2023-06-19T07:24:48;7.88;;;5.35;;
54157;SDS011;40065;49.894;10.358;2023-06-19T07:29:50;6.45;;;5.57;;
54157;SDS011;40065;49.894;10.358;2023-06-19T07:34:52;7.72;;;5.80;;
54157;SDS011;40065;49.894;10.358;2023-06-19T07:39:54;7.77;;;5.07;;
54157;SDS011;40065;49.894;10.358;2023-06-19T07:44:57;8.07;;;5.10;;
54157;SDS011;40065;49.894;10.358;2023-06-19T07:49:59;6.43;;;5.40;;
54157;SDS011;40065;49.894;10.358;2023-06-19T07:55:00;7.35;;;5.50;;
54157;SDS011;40065;49.894;10.358;2023-06-19T08:00:04;8.82;;;5.88;;
54157;SDS011;40065;49.894;10.358;2023-06-19T08:05:12;7.90;;;5.25;;
54157;SDS011;40065;49.894;10.358;2023-06-19T08:10:14;11.20;;;5.30;;
54157;SDS011;40065;49.894;10.358;2023-06-19T08:15:16;5.95;;;5.20;;
54157;SDS011;40065;49.894;10.358;2023-06-19T08:20:18;13.18;;;4.90;;
54157;SDS011;40065;49.894;10.358;2023-06-19T08:30:23;7.47;;;5.20;;
54157;SDS011;40065;49.894;10.358;2023-06-19T08:35:25;6.60;;;5.10;;
54157;SDS011;40065;49.894;10.358;2023-06-19T08:40:27;7.65;;;4.60;;
54157;SDS011;40065;49.894;10.358;2023-06-19T08:45:29;8.05;;;5.28;;
54157;SDS011;40065;49.894;10.358;2023-06-19T08:50:31;5.90;;;4.25;;
54157;SDS011;40065;49.894;10.358;2023-06-19T08:55:34;5.00;;;4.32;;
54157;SDS011;40065;49.894;10.358;2023-06-19T09:00:36;4.60;;;3.97;;
54157;SDS011;40065;49.894;10.358;2023-06-19T09:05:40;7.50;;;4.60;;
54157;SDS011;40065;49.894;10.358;2023-06-19T09:11:10;5.43;;;4.10;;
54157;SDS011;40065;49.894;10.358;2023-06-19T09:16:12;5.80;;;4.00;;
54157;SDS011;40065;49.894;10.358;2023-06-19T09:21:15;4.70;;;3.38;;
54157;SDS011;40065;49.894;10.358;2023-06-19T09:26:19;5.05;;;3.65;;
54157;SDS011;40065;49.894;10.358;2023-06-19T09:31:30;10.13;;;3.37;;
54157;SDS011;40065;49.894;10.358;2023-06-19T09:36:34;3.80;;;3.25;;
54157;SDS011;40065;49.894;10.358;2023-06-19T09:41:38;7.45;;;3.95;;
54157;SDS011;40065;49.894;10.358;2023-06-19T09:46:42;6.88;;;4.30;;
54157;SDS011;40065;49.894;10.358;2023-06-19T09:51:49;5.85;;;3.88;;
54157;SDS011;40065;49.894;10.358;2023-06-19T09:56:52;4.70;;;3.70;;
54157;SDS011;40065;49.894;10.358;2023-06-19T10:01:58;5.35;;;3.90;;
54157;SDS011;40065;49.894;10.358;2023-06-19T10:07:00;5.10;;;3.37;;
54157;SDS011;40065;49.894;10.358;2023-06-19T10:12:02;5.20;;;3.70;;
54157;SDS011;40065;49.894;10.358;2023-06-19T10:17:16;5.00;;;3.33;;
54157;SDS011;40065;49.894;10.358;2023-06-19T10:22:19;4.30;;;3.38;;
54157;SDS011;40065;49.894;10.358;2023-06-19T10:27:24;6.53;;;3.70;;
54157;SDS011;40065;49.894;10.358;2023-06-19T10:32:26;4.95;;;3.42;;
54157;SDS011;40065;49.894;10.358;2023-06-19T10:37:34;5.10;;;3.60;;
54157;SDS011;40065;49.894;10.358;2023-06-19T10:42:39;6.03;;;3.90;;
54157;SDS011;40065;49.894;10.358;2023-06-19T10:47:41;4.53;;;4.07;;
54157;SDS011;40065;49.894;10.358;2023-06-19T10:52:44;4.23;;;3.70;;
54157;SDS011;40065;49.894;10.358;2023-06-19T10:57:48;5.43;;;3.90;;
54157;SDS011;40065;49.894;10.358;2023-06-19T11:02:51;7.40;;;3.95;;
54157;SDS011;40065;49.894;10.358;2023-06-19T11:07:54;6.00;;;3.97;;
54157;SDS011;40065;49.894;10.358;2023-06-19T11:12:58;5.28;;;4.32;;
54157;SDS011;40065;49.894;10.358;2023-06-19T11:18:00;6.13;;;4.13;;
54157;SDS011;40065;49.894;10.358;2023-06-19T11:23:03;6.40;;;4.22;;
54157;SDS011;40065;49.894;10.358;2023-06-19T11:28:12;9.65;;;4.32;;
54157;SDS011;40065;49.894;10.358;2023-06-19T11:33:16;6.07;;;4.43;;
54157;SDS011;40065;49.894;10.358;2023-06-19T11:38:24;8.10;;;4.15;;
54157;SDS011;40065;49.894;10.358;2023-06-19T11:43:30;6.68;;;4.82;;
54157;SDS011;40065;49.894;10.358;2023-06-19T11:48:36;6.03;;;4.38;;
54157;SDS011;40065;49.894;10.358;2023-06-19T11:53:38;7.63;;;4.45;;
54157;SDS011;40065;49.894;10.358;2023-06-19T11:58:40;6.47;;;4.50;;
54157;SDS011;40065;49.894;10.358;2023-06-19T12:03:42;4.33;;;3.93;;
54157;SDS011;40065;49.894;10.358;2023-06-19T12:08:44;6.35;;;4.32;;
54157;SDS011;40065;49.894;10.358;2023-06-19T12:13:46;9.20;;;4.45;;
54157;SDS011;40065;49.894;10.358;2023-06-19T12:18:48;7.43;;;4.20;;
54157;SDS011;40065;49.894;10.358;2023-06-19T12:23:50;5.28;;;4.22;;
54157;SDS011;40065;49.894;10.358;2023-06-19T12:28:52;6.95;;;3.80;;
54157;SDS011;40065;49.894;10.358;2023-06-19T12:39:00;6.72;;;4.07;;
54157;SDS011;40065;49.894;10.358;2023-06-19T12:44:03;4.43;;;3.90;;
54157;SDS011;40065;49.894;10.358;2023-06-19T12:49:06;5.68;;;3.95;;
54157;SDS011;40065;49.894;10.358;2023-06-19T12:54:08;19.80;;;4.75;;
54157;SDS011;40065;49.894;10.358;2023-06-19T12:59:10;5.93;;;4.57;;
54157;SDS011;40065;49.894;10.358;2023-06-19T13:04:12;4.93;;;4.40;;
54157;SDS011;40065;49.894;10.358;2023-06-19T13:09:14;5.13;;;4.20;;
54157;SDS011;40065;49.894;10.358;2023-06-19T13:14:16;4.38;;;3.97;;
54157;SDS011;40065;49.894;10.358;2023-06-19T13:19:18;4.53;;;3.78;;
54157;SDS011;40065;49.894;10.358;2023-06-19T13:24:20;4.65;;;4.25;;
54157;SDS011;40065;49.894;10.358;2023-06-19T13:29:22;4.63;;;4.20;;
54157;SDS011;40065;49.894;10.358;2023-06-19T13:34:24;5.13;;;3.70;;
54157;SDS011;40065;49.894;10.358;2023-06-19T13:39:26;4.38;;;3.80;;
54157;SDS011;40065;49.894;10.358;2023-06-19T13:44:28;6.15;;;4.07;;
54157;SDS011;40065;49.894;10.358;2023-06-19T13:49:29;8.82;;;3.90;;
54157;SDS011;40065;49.894;10.358;2023-06-19T13:54:32;6.45;;;4.07;;
54157;SDS011;40065;49.894;10.358;2023-06-19T13:59:35;6.57;;;4.10;;
54157;SDS011;40065;49.894;10.358;2023-06-19T14:04:36;4.55;;;3.72;;
54157;SDS011;40065;49.894;10.358;2023-06-19T14:09:39;4.72;;;3.97;;
54157;SDS011;40065;49.894;10.358;2023-06-19T14:14:40;5.90;;;4.25;;
54157;SDS011;40065;49.894;10.358;2023-06-19T14:19:42;5.50;;;4.07;;
54157;SDS011;40065;49.894;10.358;2023-06-19T14:24:44;5.55;;;3.75;;
54157;SDS011;40065;49.894;10.358;2023-06-19T14:29:46;9.38;;;4.25;;
54157;SDS011;40065;49.894;10.358;2023-06-19T14:34:48;8.70;;;4.25;;
54157;SDS011;40065;49.894;10.358;2023-06-19T14:39:50;5.78;;;4.40;;
54157;SDS011;40065;49.894;10.358;2023-06-19T14:44:52;4.90;;;4.15;;
54157;SDS011;40065;49.894;10.358;2023-06-19T14:49:53;4.70;;;4.30;;
54157;SDS011;40065;49.894;10.358;2023-06-19T14:54:55;5.83;;;3.73;;
54157;SDS011;40065;49.894;10.358;2023-06-19T14:59:59;6.72;;;4.40;;
54157;SDS011;40065;49.894;10.358;2023-06-19T15:05:01;7.13;;;4.20;;
54157;SDS011;40065;49.894;10.358;2023-06-19T15:10:08;4.53;;;3.85;;
54157;SDS011;40065;49.894;10.358;2023-06-19T15:15:10;5.63;;;4.22;;
54157;SDS011;40065;49.894;10.358;2023-06-19T15:20:12;7.20;;;4.32;;
54157;SDS011;40065;49.894;10.358;2023-06-19T15:25:17;3.92;;;3.50;;
54157;SDS011;40065;49.894;10.358;2023-06-19T15:30:19;4.18;;;3.47;;
54157;SDS011;40065;49.894;10.358;2023-06-19T15:35:21;5.53;;;4.32;;
54157;SDS011;40065;49.894;10.358;2023-06-19T15:40:23;4.80;;;3.92;;
54157;SDS011;40065;49.894;10.358;2023-06-19T15:45:26;7.00;;;4.20;;
54157;SDS011;40065;49.894;10.358;2023-06-19T15:50:28;8.50;;;4.40;;
54157;SDS011;40065;49.894;10.358;2023-06-19T15:55:30;5.13;;;3.80;;
54157;SDS011;40065;49.894;10.358;2023-06-19T16:00:32;5.37;;;4.10;;
54157;SDS011;40065;49.894;10.358;2023-06-19T16:05:34;4.87;;;3.90;;
54157;SDS011;40065;49.894;10.358;2023-06-19T16:10:35;6.13;;;4.10;;
54157;SDS011;40065;49.894;10.358;2023-06-19T16:15:37;5.77;;;3.70;;
54157;SDS011;40065;49.894;10.358;2023-06-19T16:20:39;4.63;;;4.00;;
54157;SDS011;40065;49.894;10.358;2023-06-19T16:25:41;4.60;;;4.20;;
54157;SDS011;40065;49.894;10.358;2023-06-19T16:30:43;8.03;;;3.93;;
54157;SDS011;40065;49.894;10.358;2023-06-19T16:35:45;4.13;;;3.73;;
54157;SDS011;40065;49.894;10.358;2023-06-19T16:40:46;5.87;;;4.40;;
54157;SDS011;40065;49.894;10.358;2023-06-19T16:45:48;5.43;;;4.20;;
54157;SDS011;40065;49.894;10.358;2023-06-19T16:50:50;6.00;;;3.97;;
54157;SDS011;40065;49.894;10.358;2023-06-19T16:55:52;4.03;;;3.50;;
54157;SDS011;40065;49.894;10.358;2023-06-19T17:00:57;7.03;;;4.10;;
54157;SDS011;40065;49.894;10.358;2023-06-19T17:05:59;4.77;;;3.63;;
54157;SDS011;40065;49.894;10.358;2023-06-19T17:11:00;5.28;;;4.05;;
54157;SDS011;40065;49.894;10.358;2023-06-19T17:16:02;6.53;;;3.70;;
54157;SDS011;40065;49.894;10.358;2023-06-19T17:21:04;4.50;;;3.83;;
54157;SDS011;40065;49.894;10.358;2023-06-19T17:26:06;6.93;;;3.80;;
54157;SDS011;40065;49.894;10.358;2023-06-19T17:31:08;4.27;;;3.30;;
54157;SDS011;40065;49.894;10.358;2023-06-19T17:36:10;4.53;;;3.53;;
54157;SDS011;40065;49.894;10.358;2023-06-19T17:41:12;6.03;;;3.83;;
54157;SDS011;40065;49.894;10.358;2023-06-19T17:46:14;4.60;;;2.83;;
54157;SDS011;40065;49.894;10.358;2023-06-19T17:51:16;4.55;;;3.65;;
54157;SDS011;40065;49.894;10.358;2023-06-19T17:56:18;5.15;;;3.80;;
54157;SDS011;40065;49.894;10.358;2023-06-19T18:01:19;4.38;;;2.85;;
54157;SDS011;40065;49.894;10.358;2023-06-19T18:06:23;4.22;;;3.50;;
54157;SDS011;40065;49.894;10.358;2023-06-19T18:11:25;3.92;;;3.20;;
54157;SDS011;40065;49.894;10.358;2023-06-19T18:16:27;5.30;;;3.10;;
54157;SDS011;40065;49.894;10.358;2023-06-19T18:21:29;3.70;;;3.13;;
54157;SDS011;40065;49.894;10.358;2023-06-19T18:26:30;8.07;;;3.20;;
54157;SDS011;40065;49.894;10.358;2023-06-19T18:31:32;4.60;;;3.60;;
54157;SDS011;40065;49.894;10.358;2023-06-19T18:36:34;4.32;;;2.92;;
54157;SDS011;40065;49.894;10.358;2023-06-19T18:41:36;3.40;;;2.80;;
54157;SDS011;40065;49.894;10.358;2023-06-19T18:46:38;4.43;;;3.35;;
54157;SDS011;40065;49.894;10.358;2023-06-19T18:51:40;3.83;;;3.28;;
54157;SDS011;40065;49.894;10.358;2023-06-19T18:56:41;5.40;;;3.30;;
54157;SDS011;40065;49.894;10.358;2023-06-19T19:01:44;7.07;;;3.88;;
54157;SDS011;40065;49.894;10.358;2023-06-19T19:06:46;4.32;;;3.30;;
54157;SDS011;40065;49.894;10.358;2023-06-19T19:11:48;4.90;;;3.92;;
54157;SDS011;40065;49.894;10.358;2023-06-19T19:16:51;3.00;;;2.70;;
54157;SDS011;40065;49.894;10.358;2023-06-19T19:21:53;4.78;;;3.40;;
54157;SDS011;40065;49.894;10.358;2023-06-19T19:26:55;3.53;;;3.03;;
54157;SDS011;40065;49.894;10.358;2023-06-19T19:31:56;4.97;;;3.38;;
54157;SDS011;40065;49.894;10.358;2023-06-19T19:36:58;5.78;;;3.88;;
54157;SDS011;40065;49.894;10.358;2023-06-19T19:42:00;4.22;;;3.35;;
54157;SDS011;40065;49.894;10.358;2023-06-19T19:47:02;4.18;;;2.95;;
54157;SDS011;40065;49.894;10.358;2023-06-19T19:52:04;5.15;;;3.33;;
54157;SDS011;40065;49.894;10.358;2023-06-19T19:57:06;6.97;;;3.00;;
54157;SDS011;40065;49.894;10.358;2023-06-19T20:02:08;5.10;;;3.50;;
54157;SDS011;40065;49.894;10.358;2023-06-19T20:07:11;8.45;;;4.18;;
54157;SDS011;40065;49.894;10.358;2023-06-19T20:12:13;7.80;;;3.90;;
54157;SDS011;40065;49.894;10.358;2023-06-19T20:17:21;5.95;;;3.47;;
54157;SDS011;40065;49.894;10.358;2023-06-19T20:22:24;5.53;;;3.20;;
54157;SDS011;40065;49.894;10.358;2023-06-19T20:27:26;4.63;;;3.08;;
54157;SDS011;40065;49.894;10.358;2023-06-19T20:32:28;5.20;;;3.17;;
54157;SDS011;40065;49.894;10.358;2023-06-19T20:37:29;4.57;;;3.67;;
54157;SDS011;40065;49.894;10.358;2023-06-19T20:42:34;5.53;;;4.07;;
54157;SDS011;40065;49.894;10.358;2023-06-19T20:47:36;3.83;;;3.38;;
54157;SDS011;40065;49.894;10.358;2023-06-19T20:52:38;5.53;;;3.25;;
54157;SDS011;40065;49.894;10.358;2023-06-19T20:57:40;5.57;;;3.17;;
54157;SDS011;40065;49.894;10.358;2023-06-19T21:02:42;3.80;;;3.40;;
54157;SDS011;40065;49.894;10.358;2023-06-19T21:07:44;3.53;;;2.70;;
54157;SDS011;40065;49.894;10.358;2023-06-19T21:12:47;3.83;;;3.42;;
54157;SDS011;40065;49.894;10.358;2023-06-19T21:17:49;4.45;;;3.70;;
54157;SDS011;40065;49.894;10.358;2023-06-19T21:22:51;3.70;;;2.97;;
54157;SDS011;40065;49.894;10.358;2023-06-19T21:27:52;3.95;;;3.20;;
54157;SDS011;40065;49.894;10.358;2023-06-19T21:32:54;3.50;;;2.88;;
54157;SDS011;40065;49.894;10.358;2023-06-19T21:37:56;3.70;;;3.00;;
54157;SDS011;40065;49.894;10.358;2023-06-19T21:42:58;5.93;;;3.50;;
54157;SDS011;40065;49.894;10.358;2023-06-19T21:48:00;4.30;;;3.17;;
54157;SDS011;40065;49.894;10.358;2023-06-19T21:53:01;4.68;;;2.83;;
54157;SDS011;40065;49.894;10.358;2023-06-19T21:58:04;3.22;;;2.60;;
54157;SDS011;40065;49.894;10.358;2023-06-19T22:03:05;5.88;;;3.33;;
54157;SDS011;40065;49.894;10.358;2023-06-19T22:08:08;5.18;;;3.28;;
54157;SDS011;40065;49.894;10.358;2023-06-19T22:13:10;4.93;;;3.65;;
54157;SDS011;40065;49.894;10.358;2023-06-19T22:18:13;5.72;;;3.55;;
54157;SDS011;40065;49.894;10.358;2023-06-19T22:23:17;3.63;;;3.10;;
54157;SDS011;40065;49.894;10.358;2023-06-19T22:28:19;4.82;;;3.30;;
54157;SDS011;40065;49.894;10.358;2023-06-19T22:33:21;4.07;;;3.38;;
54157;SDS011;40065;49.894;10.358;2023-06-19T22:38:23;4.25;;;2.90;;
54157;SDS011;40065;49.894;10.358;2023-06-19T22:43:25;3.53;;;2.83;;
54157;SDS011;40065;49.894;10.358;2023-06-19T22:48:27;4.70;;;3.00;;
54157;SDS011;40065;49.894;10.358;2023-06-19T22:53:29;3.85;;;3.13;;
54157;SDS011;40065;49.894;10.358;2023-06-19T22:58:31;4.55;;;3.50;;
54157;SDS011;40065;49.894;10.358;2023-06-19T23:03:33;3.65;;;3.17;;
54157;SDS011;40065;49.894;10.358;2023-06-19T23:08:39;4.47;;;3.08;;
54157;SDS011;40065;49.894;10.358;2023-06-19T23:13:41;5.15;;;3.30;;
54157;SDS011;40065;49.894;10.358;2023-06-19T23:18:43;4.93;;;3.70;;
54157;SDS011;40065;49.894;10.358;2023-06-19T23:23:45;4.63;;;3.90;;
54157;SDS011;40065;49.894;10.358;2023-06-19T23:28:52;5.03;;;3.65;;
54157;SDS011;40065;49.894;10.358;2023-06-19T23:33:54;3.80;;;3.15;;
54157;SDS011;40065;49.894;10.358;2023-06-19T23:39:00;5.38;;;3.58;;
54157;SDS011;40065;49.894;10.358;2023-06-19T23:44:02;4.60;;;3.33;;
54157;SDS011;40065;49.894;10.358;2023-06-19T23:49:04;4.07;;;3.53;;
54157;SDS011;40065;49.894;10.358;2023-06-19T23:54:06;3.58;;;3.10;;
54157;SDS011;40065;49.894;10.358;2023-06-19T23:59:08;4.57;;;3.30;;
